sensor_id;sensor_type;location;lat;lon;timestamp;P1;durP1;ratioP1;P2;durP2;ratioP2
53875;SDS011;39789;53.216;5.624;2022-12-20T00:01:08;9.98;;;6.47;;
53875;SDS011;39789;53.216;5.624;2022-12-20T00:03:37;9.88;;;5.88;;
53875;SDS011;39789;53.216;5.624;2022-12-20T00:06:03;8.88;;;5.93;;
53875;SDS011;39789;53.216;5.624;2022-12-20T00:08:29;9.65;;;6.53;;
53875;SDS011;39789;53.216;5.624;2022-12-20T00:10:54;9.05;;;6.00;;
53875;SDS011;39789;53.216;5.624;2022-12-20T00:13:20;11.40;;;6.40;;
53875;SDS011;39789;53.216;5.624;2022-12-20T00:15:46;10.70;;;6.35;;
53875;SDS011;39789;53.216;5.624;2022-12-20T00:18:11;9.13;;;6.07;;
53875;SDS011;39789;53.216;5.624;2022-12-20T00:20:37;8.43;;;6.18;;
53875;SDS011;39789;53.216;5.624;2022-12-20T00:23:03;9.38;;;5.93;;
53875;SDS011;39789;53.216;5.624;2022-12-20T00:25:28;8.60;;;6.32;;
53875;SDS011;39789;53.216;5.624;2022-12-20T00:27:57;9.88;;;5.82;;
53875;SDS011;39789;53.216;5.624;2022-12-20T00:30:22;10.30;;;6.28;;
53875;SDS011;39789;53.216;5.624;2022-12-20T00:32:48;7.55;;;5.72;;
53875;SDS011;39789;53.216;5.624;2022-12-20T00:35:14;8.57;;;6.10;;
53875;SDS011;39789;53.216;5.624;2022-12-20T00:37:39;8.63;;;5.68;;
53875;SDS011;39789;53.216;5.624;2022-12-20T00:40:05;8.00;;;5.90;;
53875;SDS011;39789;53.216;5.624;2022-12-20T00:42:32;9.00;;;6.10;;
53875;SDS011;39789;53.216;5.624;2022-12-20T00:44:57;9.75;;;5.45;;
53875;SDS011;39789;53.216;5.624;2022-12-20T00:47:23;7.78;;;5.78;;
53875;SDS011;39789;53.216;5.624;2022-12-20T00:49:48;7.85;;;5.65;;
53875;SDS011;39789;53.216;5.624;2022-12-20T00:52:16;10.70;;;6.13;;
53875;SDS011;39789;53.216;5.624;2022-12-20T00:54:42;7.70;;;5.90;;
53875;SDS011;39789;53.216;5.624;2022-12-20T00:57:08;8.40;;;5.40;;
53875;SDS011;39789;53.216;5.624;2022-12-20T00:59:33;9.43;;;5.50;;
53875;SDS011;39789;53.216;5.624;2022-12-20T01:01:59;9.75;;;5.47;;
53875;SDS011;39789;53.216;5.624;2022-12-20T01:04:24;10.93;;;5.47;;
53875;SDS011;39789;53.216;5.624;2022-12-20T01:06:50;7.07;;;5.50;;
53875;SDS011;39789;53.216;5.624;2022-12-20T01:09:16;8.00;;;5.13;;
53875;SDS011;39789;53.216;5.624;2022-12-20T01:11:41;10.52;;;5.57;;
53875;SDS011;39789;53.216;5.624;2022-12-20T01:14:09;7.70;;;5.30;;
53875;SDS011;39789;53.216;5.624;2022-12-20T01:16:41;9.02;;;5.68;;
53875;SDS011;39789;53.216;5.624;2022-12-20T01:19:09;7.63;;;5.10;;
53875;SDS011;39789;53.216;5.624;2022-12-20T01:21:39;7.00;;;5.10;;
53875;SDS011;39789;53.216;5.624;2022-12-20T01:24:09;11.02;;;5.82;;
53875;SDS011;39789;53.216;5.624;2022-12-20T01:26:35;7.78;;;5.32;;
53875;SDS011;39789;53.216;5.624;2022-12-20T01:29:01;7.60;;;5.72;;
53875;SDS011;39789;53.216;5.624;2022-12-20T01:31:27;7.38;;;5.70;;
53875;SDS011;39789;53.216;5.624;2022-12-20T01:33:53;11.23;;;5.70;;
53875;SDS011;39789;53.216;5.624;2022-12-20T01:36:21;7.47;;;5.00;;
53875;SDS011;39789;53.216;5.624;2022-12-20T01:38:55;7.95;;;5.43;;
53875;SDS011;39789;53.216;5.624;2022-12-20T01:41:22;6.90;;;5.22;;
53875;SDS011;39789;53.216;5.624;2022-12-20T01:46:40;7.20;;;4.93;;
53875;SDS011;39789;53.216;5.624;2022-12-20T01:49:22;7.85;;;5.60;;
53875;SDS011;39789;53.216;5.624;2022-12-20T01:52:01;7.32;;;5.38;;
53875;SDS011;39789;53.216;5.624;2022-12-20T01:54:38;8.60;;;5.55;;
53875;SDS011;39789;53.216;5.624;2022-12-20T01:57:09;8.23;;;6.10;;
53875;SDS011;39789;53.216;5.624;2022-12-20T01:59:41;6.78;;;5.35;;
53875;SDS011;39789;53.216;5.624;2022-12-20T02:02:10;8.18;;;5.13;;
53875;SDS011;39789;53.216;5.624;2022-12-20T02:04:36;9.10;;;5.68;;
53875;SDS011;39789;53.216;5.624;2022-12-20T02:07:02;9.82;;;5.95;;
53875;SDS011;39789;53.216;5.624;2022-12-20T02:09:30;10.60;;;6.30;;
53875;SDS011;39789;53.216;5.624;2022-12-20T02:17:41;7.65;;;6.30;;
53875;SDS011;39789;53.216;5.624;2022-12-20T02:31:03;7.82;;;6.03;;
53875;SDS011;39789;53.216;5.624;2022-12-20T02:33:33;8.13;;;5.50;;
53875;SDS011;39789;53.216;5.624;2022-12-20T02:35:59;8.43;;;5.80;;
53875;SDS011;39789;53.216;5.624;2022-12-20T02:41:05;11.85;;;6.40;;
53875;SDS011;39789;53.216;5.624;2022-12-20T02:43:35;7.88;;;6.28;;
53875;SDS011;39789;53.216;5.624;2022-12-20T02:46:23;9.38;;;7.25;;
53875;SDS011;39789;53.216;5.624;2022-12-20T02:48:50;12.40;;;6.57;;
53875;SDS011;39789;53.216;5.624;2022-12-20T02:51:17;8.60;;;5.82;;
53875;SDS011;39789;53.216;5.624;2022-12-20T02:53:45;9.32;;;6.20;;
53875;SDS011;39789;53.216;5.624;2022-12-20T02:56:12;10.43;;;6.05;;
53875;SDS011;39789;53.216;5.624;2022-12-20T02:58:41;9.48;;;6.13;;
53875;SDS011;39789;53.216;5.624;2022-12-20T03:01:23;11.02;;;6.22;;
53875;SDS011;39789;53.216;5.624;2022-12-20T03:04:01;8.45;;;6.05;;
53875;SDS011;39789;53.216;5.624;2022-12-20T03:06:28;9.57;;;5.82;;
53875;SDS011;39789;53.216;5.624;2022-12-20T03:08:54;11.30;;;6.28;;
53875;SDS011;39789;53.216;5.624;2022-12-20T03:11:20;7.80;;;6.35;;
53875;SDS011;39789;53.216;5.624;2022-12-20T03:13:46;8.35;;;5.63;;
53875;SDS011;39789;53.216;5.624;2022-12-20T03:16:11;9.32;;;6.10;;
53875;SDS011;39789;53.216;5.624;2022-12-20T03:18:37;10.73;;;6.43;;
53875;SDS011;39789;53.216;5.624;2022-12-20T03:21:03;10.70;;;6.32;;
53875;SDS011;39789;53.216;5.624;2022-12-20T03:23:28;8.20;;;5.82;;
53875;SDS011;39789;53.216;5.624;2022-12-20T03:25:54;10.27;;;6.00;;
53875;SDS011;39789;53.216;5.624;2022-12-20T03:28:20;10.43;;;6.13;;
53875;SDS011;39789;53.216;5.624;2022-12-20T03:30:45;9.05;;;5.78;;
53875;SDS011;39789;53.216;5.624;2022-12-20T03:33:11;10.02;;;6.13;;
53875;SDS011;39789;53.216;5.624;2022-12-20T03:35:37;9.75;;;5.88;;
53875;SDS011;39789;53.216;5.624;2022-12-20T03:38:02;9.30;;;5.80;;
53875;SDS011;39789;53.216;5.624;2022-12-20T03:40:28;9.25;;;6.25;;
53875;SDS011;39789;53.216;5.624;2022-12-20T03:42:54;8.02;;;5.45;;
53875;SDS011;39789;53.216;5.624;2022-12-20T03:45:19;10.55;;;6.22;;
53875;SDS011;39789;53.216;5.624;2022-12-20T03:47:45;6.70;;;5.10;;
53875;SDS011;39789;53.216;5.624;2022-12-20T03:50:10;6.95;;;5.75;;
53875;SDS011;39789;53.216;5.624;2022-12-20T03:52:36;7.80;;;5.90;;
53875;SDS011;39789;53.216;5.624;2022-12-20T03:55:02;8.18;;;5.88;;
53875;SDS011;39789;53.216;5.624;2022-12-20T03:57:28;14.57;;;6.53;;
53875;SDS011;39789;53.216;5.624;2022-12-20T03:59:54;8.82;;;5.55;;
53875;SDS011;39789;53.216;5.624;2022-12-20T04:02:20;10.38;;;6.28;;
53875;SDS011;39789;53.216;5.624;2022-12-20T04:04:46;8.55;;;5.68;;
53875;SDS011;39789;53.216;5.624;2022-12-20T04:07:12;9.35;;;6.22;;
53875;SDS011;39789;53.216;5.624;2022-12-20T04:09:38;6.15;;;5.32;;
53875;SDS011;39789;53.216;5.624;2022-12-20T04:12:03;11.20;;;6.40;;
53875;SDS011;39789;53.216;5.624;2022-12-20T04:14:29;8.13;;;5.20;;
53875;SDS011;39789;53.216;5.624;2022-12-20T04:16:55;9.65;;;6.07;;
53875;SDS011;39789;53.216;5.624;2022-12-20T04:19:21;8.90;;;6.07;;
53875;SDS011;39789;53.216;5.624;2022-12-20T04:21:47;8.10;;;5.50;;
53875;SDS011;39789;53.216;5.624;2022-12-20T04:24:12;7.45;;;5.47;;
53875;SDS011;39789;53.216;5.624;2022-12-20T04:26:38;8.00;;;5.60;;
53875;SDS011;39789;53.216;5.624;2022-12-20T04:29:03;8.05;;;5.15;;
53875;SDS011;39789;53.216;5.624;2022-12-20T04:31:29;6.43;;;5.47;;
53875;SDS011;39789;53.216;5.624;2022-12-20T04:37:36;8.45;;;5.22;;
53875;SDS011;39789;53.216;5.624;2022-12-20T04:40:01;9.20;;;5.50;;
53875;SDS011;39789;53.216;5.624;2022-12-20T04:42:27;6.80;;;5.20;;
53875;SDS011;39789;53.216;5.624;2022-12-20T04:44:53;7.88;;;5.57;;
53875;SDS011;39789;53.216;5.624;2022-12-20T04:47:18;7.72;;;5.13;;
53875;SDS011;39789;53.216;5.624;2022-12-20T04:49:44;8.07;;;5.18;;
53875;SDS011;39789;53.216;5.624;2022-12-20T04:52:09;8.63;;;5.22;;
53875;SDS011;39789;53.216;5.624;2022-12-20T04:54:53;7.57;;;5.20;;
53875;SDS011;39789;53.216;5.624;2022-12-20T04:57:19;7.32;;;5.28;;
53875;SDS011;39789;53.216;5.624;2022-12-20T04:59:44;7.47;;;5.32;;
53875;SDS011;39789;53.216;5.624;2022-12-20T05:02:10;7.45;;;5.00;;
53875;SDS011;39789;53.216;5.624;2022-12-20T05:04:36;8.02;;;5.38;;
53875;SDS011;39789;53.216;5.624;2022-12-20T05:07:01;9.07;;;5.55;;
53875;SDS011;39789;53.216;5.624;2022-12-20T05:09:27;6.30;;;4.85;;
53875;SDS011;39789;53.216;5.624;2022-12-20T05:11:52;9.75;;;5.88;;
53875;SDS011;39789;53.216;5.624;2022-12-20T05:14:18;7.97;;;4.93;;
53875;SDS011;39789;53.216;5.624;2022-12-20T05:16:44;6.35;;;4.30;;
53875;SDS011;39789;53.216;5.624;2022-12-20T05:19:09;8.07;;;5.05;;
53875;SDS011;39789;53.216;5.624;2022-12-20T05:21:35;6.03;;;4.80;;
53875;SDS011;39789;53.216;5.624;2022-12-20T05:24:19;9.68;;;5.53;;
53875;SDS011;39789;53.216;5.624;2022-12-20T05:27:03;9.37;;;4.77;;
53875;SDS011;39789;53.216;5.624;2022-12-20T05:29:29;6.32;;;5.22;;
53875;SDS011;39789;53.216;5.624;2022-12-20T05:31:54;7.22;;;4.93;;
53875;SDS011;39789;53.216;5.624;2022-12-20T05:34:23;9.60;;;5.10;;
53875;SDS011;39789;53.216;5.624;2022-12-20T05:36:49;6.53;;;4.88;;
53875;SDS011;39789;53.216;5.624;2022-12-20T05:39:14;8.25;;;4.90;;
53875;SDS011;39789;53.216;5.624;2022-12-20T05:41:40;5.57;;;4.40;;
53875;SDS011;39789;53.216;5.624;2022-12-20T05:44:06;6.90;;;5.25;;
53875;SDS011;39789;53.216;5.624;2022-12-20T05:46:33;5.60;;;4.50;;
53875;SDS011;39789;53.216;5.624;2022-12-20T05:48:58;8.20;;;4.93;;
53875;SDS011;39789;53.216;5.624;2022-12-20T05:51:24;9.60;;;5.20;;
53875;SDS011;39789;53.216;5.624;2022-12-20T05:53:50;8.95;;;4.70;;
53875;SDS011;39789;53.216;5.624;2022-12-20T05:56:15;7.32;;;4.82;;
53875;SDS011;39789;53.216;5.624;2022-12-20T05:58:41;8.27;;;5.13;;
53875;SDS011;39789;53.216;5.624;2022-12-20T06:01:07;7.15;;;4.95;;
53875;SDS011;39789;53.216;5.624;2022-12-20T06:03:34;6.35;;;4.97;;
53875;SDS011;39789;53.216;5.624;2022-12-20T06:06:00;6.03;;;4.68;;
53875;SDS011;39789;53.216;5.624;2022-12-20T06:08:26;8.13;;;4.85;;
53875;SDS011;39789;53.216;5.624;2022-12-20T06:10:51;6.07;;;4.90;;
53875;SDS011;39789;53.216;5.624;2022-12-20T06:13:17;7.07;;;4.82;;
53875;SDS011;39789;53.216;5.624;2022-12-20T06:15:43;7.00;;;4.80;;
53875;SDS011;39789;53.216;5.624;2022-12-20T06:18:09;7.65;;;5.13;;
53875;SDS011;39789;53.216;5.624;2022-12-20T06:20:38;8.13;;;5.38;;
53875;SDS011;39789;53.216;5.624;2022-12-20T06:23:04;7.40;;;5.40;;
53875;SDS011;39789;53.216;5.624;2022-12-20T06:25:29;7.75;;;4.47;;
53875;SDS011;39789;53.216;5.624;2022-12-20T06:27:55;7.40;;;5.40;;
53875;SDS011;39789;53.216;5.624;2022-12-20T06:30:21;7.93;;;6.20;;
53875;SDS011;39789;53.216;5.624;2022-12-20T06:32:47;7.57;;;6.35;;
53875;SDS011;39789;53.216;5.624;2022-12-20T06:35:13;11.23;;;6.88;;
53875;SDS011;39789;53.216;5.624;2022-12-20T06:37:39;9.60;;;6.50;;
53875;SDS011;39789;53.216;5.624;2022-12-20T06:40:09;10.02;;;6.90;;
53875;SDS011;39789;53.216;5.624;2022-12-20T06:42:37;11.10;;;7.57;;
53875;SDS011;39789;53.216;5.624;2022-12-20T06:45:03;10.35;;;8.10;;
53875;SDS011;39789;53.216;5.624;2022-12-20T06:47:29;11.88;;;8.27;;
53875;SDS011;39789;53.216;5.624;2022-12-20T06:49:55;12.82;;;8.43;;
53875;SDS011;39789;53.216;5.624;2022-12-20T06:52:20;12.57;;;8.23;;
53875;SDS011;39789;53.216;5.624;2022-12-20T06:54:47;10.80;;;7.63;;
53875;SDS011;39789;53.216;5.624;2022-12-20T06:57:12;10.13;;;8.20;;
53875;SDS011;39789;53.216;5.624;2022-12-20T06:59:38;15.27;;;9.80;;
53875;SDS011;39789;53.216;5.624;2022-12-20T07:02:04;11.35;;;7.95;;
53875;SDS011;39789;53.216;5.624;2022-12-20T07:04:30;14.82;;;9.93;;
53875;SDS011;39789;53.216;5.624;2022-12-20T07:06:57;12.30;;;8.32;;
53875;SDS011;39789;53.216;5.624;2022-12-20T07:09:22;14.13;;;8.98;;
53875;SDS011;39789;53.216;5.624;2022-12-20T07:11:48;10.95;;;8.30;;
53875;SDS011;39789;53.216;5.624;2022-12-20T07:14:14;13.23;;;8.52;;
53875;SDS011;39789;53.216;5.624;2022-12-20T07:16:39;11.30;;;8.55;;
53875;SDS011;39789;53.216;5.624;2022-12-20T07:19:09;13.25;;;8.82;;
53875;SDS011;39789;53.216;5.624;2022-12-20T07:21:36;10.27;;;8.15;;
53875;SDS011;39789;53.216;5.624;2022-12-20T07:24:04;9.25;;;7.05;;
53875;SDS011;39789;53.216;5.624;2022-12-20T07:26:30;10.80;;;8.00;;
53875;SDS011;39789;53.216;5.624;2022-12-20T07:28:56;9.75;;;7.80;;
53875;SDS011;39789;53.216;5.624;2022-12-20T07:31:21;9.55;;;7.10;;
53875;SDS011;39789;53.216;5.624;2022-12-20T07:33:47;11.45;;;7.80;;
53875;SDS011;39789;53.216;5.624;2022-12-20T07:36:13;9.90;;;7.47;;
53875;SDS011;39789;53.216;5.624;2022-12-20T07:38:40;12.25;;;7.05;;
53875;SDS011;39789;53.216;5.624;2022-12-20T07:41:09;9.48;;;7.25;;
53875;SDS011;39789;53.216;5.624;2022-12-20T07:43:37;9.70;;;7.15;;
53875;SDS011;39789;53.216;5.624;2022-12-20T07:46:03;10.52;;;6.57;;
53875;SDS011;39789;53.216;5.624;2022-12-20T07:48:30;9.27;;;7.05;;
53875;SDS011;39789;53.216;5.624;2022-12-20T07:50:58;9.55;;;6.57;;
53875;SDS011;39789;53.216;5.624;2022-12-20T07:53:31;10.48;;;6.93;;
53875;SDS011;39789;53.216;5.624;2022-12-20T07:55:59;9.27;;;6.95;;
53875;SDS011;39789;53.216;5.624;2022-12-20T07:58:26;8.75;;;6.07;;
53875;SDS011;39789;53.216;5.624;2022-12-20T08:00:54;8.60;;;6.93;;
53875;SDS011;39789;53.216;5.624;2022-12-20T08:03:22;10.90;;;6.38;;
53875;SDS011;39789;53.216;5.624;2022-12-20T08:05:56;7.55;;;6.13;;
53875;SDS011;39789;53.216;5.624;2022-12-20T08:08:24;8.48;;;5.72;;
53875;SDS011;39789;53.216;5.624;2022-12-20T08:10:51;9.38;;;5.55;;
53875;SDS011;39789;53.216;5.624;2022-12-20T08:13:17;6.93;;;5.18;;
53875;SDS011;39789;53.216;5.624;2022-12-20T08:19:24;9.52;;;5.38;;
53875;SDS011;39789;53.216;5.624;2022-12-20T08:21:49;8.40;;;5.32;;
53875;SDS011;39789;53.216;5.624;2022-12-20T08:24:15;11.93;;;5.82;;
53875;SDS011;39789;53.216;5.624;2022-12-20T08:26:41;8.52;;;5.50;;
53875;SDS011;39789;53.216;5.624;2022-12-20T08:29:06;8.63;;;5.30;;
53875;SDS011;39789;53.216;5.624;2022-12-20T08:31:36;8.85;;;4.85;;
53875;SDS011;39789;53.216;5.624;2022-12-20T08:34:06;8.82;;;5.72;;
53875;SDS011;39789;53.216;5.624;2022-12-20T08:36:33;7.18;;;4.43;;
53875;SDS011;39789;53.216;5.624;2022-12-20T08:39:04;9.00;;;4.95;;
53875;SDS011;39789;53.216;5.624;2022-12-20T08:41:32;7.80;;;4.57;;
53875;SDS011;39789;53.216;5.624;2022-12-20T08:43:59;9.05;;;5.18;;
53875;SDS011;39789;53.216;5.624;2022-12-20T08:46:24;7.65;;;4.85;;
53875;SDS011;39789;53.216;5.624;2022-12-20T08:48:50;6.38;;;4.68;;
53875;SDS011;39789;53.216;5.624;2022-12-20T08:54:57;6.55;;;4.47;;
53875;SDS011;39789;53.216;5.624;2022-12-20T08:57:22;9.50;;;4.47;;
53875;SDS011;39789;53.216;5.624;2022-12-20T08:59:48;7.38;;;4.43;;
53875;SDS011;39789;53.216;5.624;2022-12-20T09:02:13;8.43;;;4.35;;
53875;SDS011;39789;53.216;5.624;2022-12-20T09:04:39;7.35;;;4.38;;
53875;SDS011;39789;53.216;5.624;2022-12-20T09:07:05;6.10;;;3.90;;
53875;SDS011;39789;53.216;5.624;2022-12-20T09:09:30;6.40;;;3.90;;
53875;SDS011;39789;53.216;5.624;2022-12-20T09:11:56;6.13;;;3.35;;
53875;SDS011;39789;53.216;5.624;2022-12-20T09:14:22;6.25;;;3.65;;
53875;SDS011;39789;53.216;5.624;2022-12-20T09:16:47;6.88;;;4.28;;
53875;SDS011;39789;53.216;5.624;2022-12-20T09:19:13;5.82;;;3.90;;
53875;SDS011;39789;53.216;5.624;2022-12-20T09:21:39;6.32;;;3.45;;
53875;SDS011;39789;53.216;5.624;2022-12-20T09:24:05;5.47;;;3.75;;
53875;SDS011;39789;53.216;5.624;2022-12-20T09:26:31;7.28;;;3.92;;
53875;SDS011;39789;53.216;5.624;2022-12-20T09:28:59;6.22;;;3.53;;
53875;SDS011;39789;53.216;5.624;2022-12-20T09:31:26;8.90;;;4.47;;
53875;SDS011;39789;53.216;5.624;2022-12-20T09:33:52;5.60;;;3.75;;
53875;SDS011;39789;53.216;5.624;2022-12-20T09:39:59;6.13;;;3.60;;
53875;SDS011;39789;53.216;5.624;2022-12-20T09:42:25;6.85;;;3.50;;
53875;SDS011;39789;53.216;5.624;2022-12-20T09:44:55;6.40;;;4.38;;
53875;SDS011;39789;53.216;5.624;2022-12-20T09:47:27;7.57;;;3.80;;
53875;SDS011;39789;53.216;5.624;2022-12-20T09:49:54;4.72;;;3.95;;
53875;SDS011;39789;53.216;5.624;2022-12-20T09:57:36;5.45;;;3.58;;
53875;SDS011;39789;53.216;5.624;2022-12-20T10:00:19;7.50;;;4.28;;
53875;SDS011;39789;53.216;5.624;2022-12-20T10:02:46;9.05;;;3.75;;
53875;SDS011;39789;53.216;5.624;2022-12-20T10:05:21;7.47;;;4.20;;
53875;SDS011;39789;53.216;5.624;2022-12-20T10:08:23;6.72;;;4.20;;
53875;SDS011;39789;53.216;5.624;2022-12-20T10:11:29;5.65;;;3.60;;
53875;SDS011;39789;53.216;5.624;2022-12-20T10:16:52;8.90;;;4.10;;
53875;SDS011;39789;53.216;5.624;2022-12-20T10:19:30;9.30;;;4.07;;
53875;SDS011;39789;53.216;5.624;2022-12-20T10:22:19;6.88;;;4.00;;
53875;SDS011;39789;53.216;5.624;2022-12-20T10:24:52;8.90;;;4.47;;
53875;SDS011;39789;53.216;5.624;2022-12-20T10:27:25;7.97;;;4.32;;
53875;SDS011;39789;53.216;5.624;2022-12-20T10:29:51;5.97;;;3.95;;
53875;SDS011;39789;53.216;5.624;2022-12-20T10:32:21;6.68;;;4.07;;
53875;SDS011;39789;53.216;5.624;2022-12-20T10:34:50;8.63;;;4.75;;
53875;SDS011;39789;53.216;5.624;2022-12-20T10:37:20;10.30;;;3.97;;
53875;SDS011;39789;53.216;5.624;2022-12-20T10:39:46;7.00;;;4.20;;
53875;SDS011;39789;53.216;5.624;2022-12-20T10:44:58;8.85;;;4.75;;
53875;SDS011;39789;53.216;5.624;2022-12-20T10:47:32;5.97;;;4.10;;
53875;SDS011;39789;53.216;5.624;2022-12-20T10:50:12;5.35;;;3.60;;
53875;SDS011;39789;53.216;5.624;2022-12-20T10:52:41;7.03;;;3.80;;
53875;SDS011;39789;53.216;5.624;2022-12-20T10:55:31;9.07;;;4.05;;
53875;SDS011;39789;53.216;5.624;2022-12-20T11:00:40;4.70;;;3.75;;
53875;SDS011;39789;53.216;5.624;2022-12-20T11:03:15;5.97;;;4.07;;
53875;SDS011;39789;53.216;5.624;2022-12-20T11:05:52;8.23;;;4.22;;
53875;SDS011;39789;53.216;5.624;2022-12-20T11:08:20;9.00;;;4.80;;
53875;SDS011;39789;53.216;5.624;2022-12-20T11:10:48;7.15;;;4.75;;
53875;SDS011;39789;53.216;5.624;2022-12-20T11:13:24;5.78;;;4.30;;
53875;SDS011;39789;53.216;5.624;2022-12-20T11:15:51;8.45;;;4.78;;
53875;SDS011;39789;53.216;5.624;2022-12-20T11:21:19;7.80;;;4.55;;
53875;SDS011;39789;53.216;5.624;2022-12-20T11:32:07;7.97;;;4.72;;
53875;SDS011;39789;53.216;5.624;2022-12-20T11:35:08;8.20;;;4.88;;
53875;SDS011;39789;53.216;5.624;2022-12-20T11:40:30;8.18;;;5.00;;
53875;SDS011;39789;53.216;5.624;2022-12-20T11:48:40;10.48;;;6.15;;
53875;SDS011;39789;53.216;5.624;2022-12-20T11:51:13;7.45;;;5.90;;
53875;SDS011;39789;53.216;5.624;2022-12-20T11:53:44;12.10;;;7.05;;
53875;SDS011;39789;53.216;5.624;2022-12-20T11:56:35;10.88;;;5.88;;
53875;SDS011;39789;53.216;5.624;2022-12-20T11:59:04;10.82;;;6.15;;
53875;SDS011;39789;53.216;5.624;2022-12-20T12:01:42;10.45;;;6.97;;
53875;SDS011;39789;53.216;5.624;2022-12-20T12:04:26;10.38;;;6.60;;
53875;SDS011;39789;53.216;5.624;2022-12-20T12:07:07;9.52;;;7.28;;
53875;SDS011;39789;53.216;5.624;2022-12-20T12:10:40;10.45;;;6.78;;
53875;SDS011;39789;53.216;5.624;2022-12-20T12:17:52;10.68;;;7.75;;
53875;SDS011;39789;53.216;5.624;2022-12-20T12:20:41;7.85;;;6.93;;
53875;SDS011;39789;53.216;5.624;2022-12-20T12:26:22;12.50;;;7.20;;
53875;SDS011;39789;53.216;5.624;2022-12-20T12:34:07;10.93;;;7.88;;
53875;SDS011;39789;53.216;5.624;2022-12-20T12:43:24;11.82;;;8.65;;
53875;SDS011;39789;53.216;5.624;2022-12-20T12:45:23;12.35;;;9.55;;
53875;SDS011;39789;53.216;5.624;2022-12-20T12:48:21;13.15;;;9.32;;
53875;SDS011;39789;53.216;5.624;2022-12-20T12:51:04;10.20;;;8.60;;
53875;SDS011;39789;53.216;5.624;2022-12-20T12:53:41;10.43;;;8.68;;
53875;SDS011;39789;53.216;5.624;2022-12-20T13:11:55;13.23;;;9.52;;
53875;SDS011;39789;53.216;5.624;2022-12-20T13:16:52;17.67;;;10.48;;
53875;SDS011;39789;53.216;5.624;2022-12-20T13:19:40;13.02;;;10.18;;
53875;SDS011;39789;53.216;5.624;2022-12-20T13:22:19;17.25;;;10.27;;
53875;SDS011;39789;53.216;5.624;2022-12-20T13:24:59;14.50;;;11.02;;
53875;SDS011;39789;53.216;5.624;2022-12-20T13:40:20;18.85;;;13.02;;
53875;SDS011;39789;53.216;5.624;2022-12-20T13:42:55;17.42;;;12.63;;
53875;SDS011;39789;53.216;5.624;2022-12-20T13:45:21;19.60;;;12.60;;
53875;SDS011;39789;53.216;5.624;2022-12-20T13:47:48;17.83;;;12.55;;
53875;SDS011;39789;53.216;5.624;2022-12-20T13:51:00;15.10;;;11.82;;
53875;SDS011;39789;53.216;5.624;2022-12-20T13:53:20;15.90;;;12.73;;
53875;SDS011;39789;53.216;5.624;2022-12-20T13:55:48;14.77;;;11.38;;
53875;SDS011;39789;53.216;5.624;2022-12-20T13:58:15;15.23;;;10.95;;
53875;SDS011;39789;53.216;5.624;2022-12-20T14:00:43;13.85;;;11.88;;
53875;SDS011;39789;53.216;5.624;2022-12-20T14:03:28;16.55;;;12.63;;
53875;SDS011;39789;53.216;5.624;2022-12-20T14:05:56;18.10;;;11.75;;
53875;SDS011;39789;53.216;5.624;2022-12-20T14:12:09;15.32;;;11.38;;
53875;SDS011;39789;53.216;5.624;2022-12-20T14:14:42;19.02;;;11.13;;
53875;SDS011;39789;53.216;5.624;2022-12-20T14:17:22;15.57;;;11.23;;
53875;SDS011;39789;53.216;5.624;2022-12-20T14:20:05;20.55;;;11.13;;
53875;SDS011;39789;53.216;5.624;2022-12-20T14:22:38;15.80;;;10.90;;
53875;SDS011;39789;53.216;5.624;2022-12-20T14:25:07;14.38;;;10.20;;
53875;SDS011;39789;53.216;5.624;2022-12-20T14:27:34;15.60;;;11.13;;
53875;SDS011;39789;53.216;5.624;2022-12-20T14:30:02;19.30;;;10.77;;
53875;SDS011;39789;53.216;5.624;2022-12-20T14:32:29;20.02;;;11.60;;
53875;SDS011;39789;53.216;5.624;2022-12-20T14:34:55;16.35;;;10.23;;
53875;SDS011;39789;53.216;5.624;2022-12-20T14:42:38;17.95;;;11.00;;
53875;SDS011;39789;53.216;5.624;2022-12-20T14:45:26;15.52;;;10.73;;
53875;SDS011;39789;53.216;5.624;2022-12-20T14:47:58;15.43;;;10.57;;
53875;SDS011;39789;53.216;5.624;2022-12-20T14:50:35;21.20;;;10.40;;
53875;SDS011;39789;53.216;5.624;2022-12-20T14:53:02;21.10;;;10.65;;
53875;SDS011;39789;53.216;5.624;2022-12-20T14:55:36;17.23;;;10.25;;
53875;SDS011;39789;53.216;5.624;2022-12-20T15:00:58;25.08;;;10.68;;
53875;SDS011;39789;53.216;5.624;2022-12-20T15:03:26;15.27;;;10.35;;
53875;SDS011;39789;53.216;5.624;2022-12-20T15:05:56;23.73;;;10.73;;
53875;SDS011;39789;53.216;5.624;2022-12-20T15:08:30;15.43;;;9.85;;
53875;SDS011;39789;53.216;5.624;2022-12-20T15:13:39;15.30;;;9.98;;
53875;SDS011;39789;53.216;5.624;2022-12-20T15:16:14;18.15;;;9.93;;
53875;SDS011;39789;53.216;5.624;2022-12-20T15:18:42;23.30;;;10.80;;
53875;SDS011;39789;53.216;5.624;2022-12-20T15:21:13;15.70;;;10.10;;
53875;SDS011;39789;53.216;5.624;2022-12-20T15:23:45;16.90;;;9.77;;
53875;SDS011;39789;53.216;5.624;2022-12-20T15:26:16;21.70;;;10.85;;
53875;SDS011;39789;53.216;5.624;2022-12-20T15:28:43;20.30;;;10.05;;
53875;SDS011;39789;53.216;5.624;2022-12-20T15:31:13;17.85;;;10.07;;
53875;SDS011;39789;53.216;5.624;2022-12-20T15:33:41;23.58;;;11.90;;
53875;SDS011;39789;53.216;5.624;2022-12-20T15:36:12;23.10;;;11.02;;
53875;SDS011;39789;53.216;5.624;2022-12-20T15:38:40;22.13;;;10.80;;
53875;SDS011;39789;53.216;5.624;2022-12-20T15:41:07;22.52;;;10.52;;
53875;SDS011;39789;53.216;5.624;2022-12-20T15:43:40;19.67;;;11.02;;
53875;SDS011;39789;53.216;5.624;2022-12-20T15:46:06;26.48;;;10.48;;
53875;SDS011;39789;53.216;5.624;2022-12-20T15:48:32;21.73;;;10.93;;
53875;SDS011;39789;53.216;5.624;2022-12-20T15:50:57;26.83;;;10.85;;
53875;SDS011;39789;53.216;5.624;2022-12-20T15:53:25;21.15;;;11.43;;
53875;SDS011;39789;53.216;5.624;2022-12-20T15:59:18;24.20;;;11.32;;
53875;SDS011;39789;53.216;5.624;2022-12-20T16:01:44;16.35;;;11.63;;
53875;SDS011;39789;53.216;5.624;2022-12-20T16:04:12;20.20;;;11.40;;
53875;SDS011;39789;53.216;5.624;2022-12-20T16:06:40;17.00;;;11.48;;
53875;SDS011;39789;53.216;5.624;2022-12-20T16:09:07;20.15;;;12.10;;
53875;SDS011;39789;53.216;5.624;2022-12-20T16:11:33;21.23;;;11.57;;
53875;SDS011;39789;53.216;5.624;2022-12-20T16:13:59;18.02;;;11.70;;
53875;SDS011;39789;53.216;5.624;2022-12-20T16:16:26;20.38;;;12.18;;
53875;SDS011;39789;53.216;5.624;2022-12-20T16:18:53;17.55;;;13.10;;
53875;SDS011;39789;53.216;5.624;2022-12-20T16:21:20;19.27;;;12.98;;
53875;SDS011;39789;53.216;5.624;2022-12-20T16:23:47;24.05;;;13.32;;
53875;SDS011;39789;53.216;5.624;2022-12-20T16:26:15;19.15;;;13.48;;
53875;SDS011;39789;53.216;5.624;2022-12-20T16:28:43;22.15;;;13.70;;
53875;SDS011;39789;53.216;5.624;2022-12-20T16:33:52;25.35;;;13.40;;
53875;SDS011;39789;53.216;5.624;2022-12-20T16:36:19;24.75;;;13.27;;
53875;SDS011;39789;53.216;5.624;2022-12-20T16:38:45;22.08;;;14.27;;
53875;SDS011;39789;53.216;5.624;2022-12-20T16:41:13;24.25;;;15.35;;
53875;SDS011;39789;53.216;5.624;2022-12-20T16:43:41;21.90;;;15.25;;
53875;SDS011;39789;53.216;5.624;2022-12-20T16:46:14;22.10;;;14.20;;
53875;SDS011;39789;53.216;5.624;2022-12-20T16:48:42;23.15;;;15.70;;
53875;SDS011;39789;53.216;5.624;2022-12-20T16:51:12;21.88;;;15.70;;
53875;SDS011;39789;53.216;5.624;2022-12-20T16:53:53;21.48;;;15.48;;
53875;SDS011;39789;53.216;5.624;2022-12-20T16:58:57;23.70;;;15.52;;
53875;SDS011;39789;53.216;5.624;2022-12-20T17:01:27;24.55;;;16.50;;
53875;SDS011;39789;53.216;5.624;2022-12-20T17:04:04;29.20;;;15.55;;
53875;SDS011;39789;53.216;5.624;2022-12-20T17:06:31;28.92;;;15.52;;
53875;SDS011;39789;53.216;5.624;2022-12-20T17:08:57;28.33;;;15.57;;
53875;SDS011;39789;53.216;5.624;2022-12-20T17:11:24;31.35;;;15.48;;
53875;SDS011;39789;53.216;5.624;2022-12-20T17:13:52;30.40;;;15.95;;